Time,TemperatureF,DewpointF,PressureIn,WindDirection,WindDirectionDegrees,WindSpeedMPH,WindSpeedGustMPH,Humidity,HourlyPrecipIn,Conditions,Clouds,dailyrainin,SoftwareType,DateUTC
2013-02-24 00:10:00,41.3,40.0,29.84,NNE,27,0.0,1.0,96,0.00,,,0.00,weatherlink.com 1.10,2013-02-24 05:10:00,
2013-02-24 00:25:00,41.2,40.0,29.84,NNE,33,0.0,2.0,96,0.00,,,0.00,weatherlink.com 1.10,2013-02-24 05:25:00,
2013-02-24 00:40:00,41.2,40.0,29.85,NW,316,1.0,3.0,96,0.00,,,0.00,weatherlink.com 1.10,2013-02-24 05:40:00,
2013-02-24 00:55:00,41.2,40.0,29.85,NNE,33,0.0,1.0,95,0.00,,,0.00,weatherlink.com 1.10,2013-02-24 05:55:00,
2013-02-24 01:10:00,41.0,40.0,29.85,NNE,33,0.0,1.0,96,0.00,,,0.00,weatherlink.com 1.10,2013-02-24 06:10:00,
2013-02-24 01:25:00,41.1,40.0,29.86,North,4,0.0,1.0,96,0.00,,,0.00,weatherlink.com 1.10,2013-02-24 06:25:00,
2013-02-24 01:40:00,41.1,40.0,29.85,East,85,0.0,2.0,96,0.00,,,0.00,weatherlink.com 1.10,2013-02-24 06:40:00,
2013-02-24 01:55:00,40.9,40.0,29.85,North,5,0.0,2.0,96,0.00,,,0.00,weatherlink.com 1.10,2013-02-24 06:55:00,
2013-02-24 02:10:00,40.7,39.0,29.84,NE,41,0.0,3.0,95,0.00,,,0.00,weatherlink.com 1.10,2013-02-24 07:10:00,
2013-02-24 02:25:00,40.6,39.0,29.84,ESE,105,0.0,1.0,95,0.00,,,0.00,weatherlink.com 1.10,2013-02-24 07:25:00,
2013-02-24 02:40:00,40.6,39.0,29.84,NW,311,1.0,4.0,95,0.00,,,0.00,weatherlink.com 1.10,2013-02-24 07:40:00,
2013-02-24 02:55:00,40.5,39.0,29.83,NNW,341,0.0,1.0,95,0.00,,,0.00,weatherlink.com 1.10,2013-02-24 07:55:00,
2013-02-24 03:10:00,40.3,39.0,29.83,North,355,0.0,4.0,94,0.00,,,0.00,weatherlink.com 1.10,2013-02-24 08:10:00,
2013-02-24 03:25:00,40.1,39.0,29.82,North,349,0.0,4.0,94,0.00,,,0.00,weatherlink.com 1.10,2013-02-24 08:25:00,
2013-02-24 03:40:00,40.0,39.0,29.82,NE,46,0.0,1.0,94,0.00,,,0.00,weatherlink.com 1.10,2013-02-24 08:40:00,
2013-02-24 03:55:00,39.9,38.0,29.82,East,91,1.0,2.0,94,0.00,,,0.00,weatherlink.com 1.10,2013-02-24 08:55:00,
2013-02-24 04:10:00,39.9,38.0,29.82,ESE,111,0.0,1.0,94,0.00,,,0.00,weatherlink.com 1.10,2013-02-24 09:10:00,
2013-02-24 04:25:00,40.0,39.0,29.82,East,89,0.0,1.0,94,0.00,,,0.00,weatherlink.com 1.10,2013-02-24 09:25:00,
2013-02-24 04:40:00,39.9,38.0,29.84,East,87,0.0,0.0,94,0.00,,,0.00,weatherlink.com 1.10,2013-02-24 09:40:00,
2013-02-24 04:55:00,39.9,38.0,29.84,East,88,0.0,0.0,94,0.00,,,0.00,weatherlink.com 1.10,2013-02-24 09:55:00,
2013-02-24 05:10:00,39.9,39.0,29.85,North,353,0.0,0.0,95,0.00,,,0.00,weatherlink.com 1.10,2013-02-24 10:10:00,
2013-02-24 05:25:00,39.8,38.0,29.84,North,359,0.0,1.0,94,0.00,,,0.00,weatherlink.com 1.10,2013-02-24 10:25:00,
2013-02-24 05:40:00,39.2,38.0,29.84,North,9,0.0,1.0,94,0.00,,,0.00,weatherlink.com 1.10,2013-02-24 10:40:00,
2013-02-24 05:55:00,39.1,38.0,29.85,East,91,0.0,1.0,95,0.00,,,0.00,weatherlink.com 1.10,2013-02-24 10:55:00,
2013-02-24 06:10:00,39.0,38.0,29.85,ESE,108,0.0,1.0,94,0.00,,,0.00,weatherlink.com 1.10,2013-02-24 11:10:00,
2013-02-24 06:26:00,38.5,37.0,29.86,ESE,108,0.0,0.0,94,0.00,,,0.00,weatherlink.com 1.10,2013-02-24 11:26:00,
2013-02-24 06:41:00,37.6,36.0,29.85,ESE,117,0.0,1.0,94,0.00,,,0.00,weatherlink.com 1.10,2013-02-24 11:41:00,
2013-02-24 06:56:00,37.0,36.0,29.86,NNE,33,0.0,0.0,95,0.00,,,0.00,weatherlink.com 1.10,2013-02-24 11:56:00,
2013-02-24 07:11:00,35.6,34.0,29.86,NNE,33,0.0,0.0,95,0.00,,,0.00,weatherlink.com 1.10,2013-02-24 12:11:00,
2013-02-24 07:26:00,35.2,34.0,29.86,NNE,33,0.0,0.0,96,0.00,,,0.00,weatherlink.com 1.10,2013-02-24 12:26:00,
2013-02-24 07:41:00,35.5,35.0,29.87,NNE,13,0.0,2.0,97,0.00,,,0.00,weatherlink.com 1.10,2013-02-24 12:41:00,
2013-02-24 07:56:00,36.3,35.0,29.86,NW,325,0.0,3.0,96,0.00,,,0.00,weatherlink.com 1.10,2013-02-24 12:56:00,
2013-02-24 08:11:00,38.4,37.0,29.87,North,9,0.0,3.0,95,0.00,,,0.00,weatherlink.com 1.10,2013-02-24 13:11:00,
2013-02-24 08:26:00,41.2,38.0,29.88,North,10,2.0,3.0,87,0.00,,,0.00,weatherlink.com 1.10,2013-02-24 13:26:00,
2013-02-24 08:41:00,42.9,36.0,29.88,NNW,335,0.0,5.0,78,0.00,,,0.00,weatherlink.com 1.10,2013-02-24 13:41:00,
2013-02-24 08:56:00,44.4,37.0,29.88,NNE,23,1.0,3.0,76,0.00,,,0.00,weatherlink.com 1.10,2013-02-24 13:56:00,
2013-02-24 09:11:00,45.3,36.0,29.89,North,352,2.0,4.0,70,0.00,,,0.00,weatherlink.com 1.10,2013-02-24 14:11:00,
2013-02-24 09:26:00,46.0,36.0,29.89,WNW,284,0.0,5.0,67,0.00,,,0.00,weatherlink.com 1.10,2013-02-24 14:26:00,
2013-02-24 09:41:00,46.9,36.0,29.90,NNE,15,3.0,3.0,65,0.00,,,0.00,weatherlink.com 1.10,2013-02-24 14:41:00,
2013-02-24 09:56:00,47.1,34.0,29.90,East,99,0.0,5.0,61,0.00,,,0.00,weatherlink.com 1.10,2013-02-24 14:56:00,
2013-02-24 10:11:00,48.0,35.0,29.90,North,8,1.0,4.0,60,0.00,,,0.00,weatherlink.com 1.10,2013-02-24 15:11:00,
2013-02-24 10:26:00,48.1,34.0,29.90,NNW,347,1.0,6.0,58,0.00,,,0.00,weatherlink.com 1.10,2013-02-24 15:26:00,
2013-02-24 10:41:00,48.3,33.0,29.90,North,6,3.0,7.0,56,0.00,,,0.00,weatherlink.com 1.10,2013-02-24 15:41:00,
2013-02-24 10:56:00,48.0,33.0,29.90,NE,52,2.0,5.0,57,0.00,,,0.00,weatherlink.com 1.10,2013-02-24 15:56:00,
2013-02-24 11:11:00,47.7,33.0,29.91,ENE,59,4.0,8.0,57,0.00,,,0.00,weatherlink.com 1.10,2013-02-24 16:11:00,
2013-02-24 11:26:00,48.8,32.0,29.91,ENE,70,1.0,4.0,53,0.00,,,0.00,weatherlink.com 1.10,2013-02-24 16:26:00,
2013-02-24 11:41:00,50.3,32.0,29.91,NNE,27,3.0,6.0,50,0.00,,,0.00,weatherlink.com 1.10,2013-02-24 16:41:00,
2013-02-24 11:56:00,50.8,32.0,29.90,NW,309,1.0,5.0,49,0.00,,,0.00,weatherlink.com 1.10,2013-02-24 16:56:00,
2013-02-24 12:11:00,50.7,31.0,29.89,NW,307,1.0,5.0,48,0.00,,,0.00,weatherlink.com 1.10,2013-02-24 17:11:00,
2013-02-24 12:27:00,50.9,31.0,29.89,ENE,67,4.0,5.0,46,0.00,,,0.00,weatherlink.com 1.10,2013-02-24 17:27:00,
2013-02-24 12:42:00,51.1,31.0,29.88,ENE,65,3.0,6.0,47,0.00,,,0.00,weatherlink.com 1.10,2013-02-24 17:42:00,
2013-02-24 12:57:00,51.5,32.0,29.88,NW,318,2.0,5.0,47,0.00,,,0.00,weatherlink.com 1.10,2013-02-24 17:57:00,
2013-02-24 13:12:00,51.7,30.0,29.88,NNE,27,4.0,5.0,44,0.00,,,0.00,weatherlink.com 1.10,2013-02-24 18:12:00,
2013-02-24 13:27:00,51.9,30.0,29.88,SSE,148,2.0,9.0,43,0.00,,,0.00,weatherlink.com 1.10,2013-02-24 18:27:00,
2013-02-24 13:42:00,51.3,28.0,29.87,NW,316,0.0,6.0,41,0.00,,,0.00,weatherlink.com 1.10,2013-02-24 18:42:00,
2013-02-24 13:57:00,52.4,29.0,29.87,SE,135,1.0,5.0,40,0.00,,,0.00,weatherlink.com 1.10,2013-02-24 18:57:00,
2013-02-24 14:12:00,52.0,28.0,29.86,NW,323,2.0,5.0,40,0.00,,,0.00,weatherlink.com 1.10,2013-02-24 19:12:00,
2013-02-24 14:27:00,52.1,28.0,29.86,NE,53,5.0,7.0,40,0.00,,,0.00,weatherlink.com 1.10,2013-02-24 19:27:00,
2013-02-24 14:42:00,52.2,28.0,29.86,NNW,327,1.0,7.0,39,0.00,,,0.00,weatherlink.com 1.10,2013-02-24 19:42:00,
2013-02-24 14:57:00,51.9,28.0,29.87,SW,219,3.0,6.0,40,0.00,,,0.00,weatherlink.com 1.10,2013-02-24 19:57:00,
2013-02-24 15:12:00,51.7,27.0,29.88,NW,320,3.0,5.0,39,0.00,,,0.00,weatherlink.com 1.10,2013-02-24 20:12:00,
2013-02-24 15:27:00,51.0,28.0,29.88,WNW,296,1.0,9.0,41,0.00,,,0.00,weatherlink.com 1.10,2013-02-24 20:27:00,
2013-02-24 15:42:00,51.0,27.0,29.89,NNW,342,3.0,6.0,39,0.00,,,0.00,weatherlink.com 1.10,2013-02-24 20:42:00,
2013-02-24 15:57:00,49.8,27.0,29.90,North,11,5.0,5.0,41,0.00,,,0.00,weatherlink.com 1.10,2013-02-24 20:57:00,
2013-02-24 16:12:00,48.7,26.0,29.91,North,4,2.0,8.0,42,0.00,,,0.00,weatherlink.com 1.10,2013-02-24 21:12:00,
2013-02-24 16:27:00,47.9,27.0,29.91,NE,40,0.0,6.0,44,0.00,,,0.00,weatherlink.com 1.10,2013-02-24 21:27:00,
2013-02-24 16:42:00,47.1,25.0,29.93,North,353,1.0,6.0,43,0.00,,,0.00,weatherlink.com 1.10,2013-02-24 21:42:00,
2013-02-24 16:57:00,45.4,27.0,29.95,NE,34,8.0,8.0,48,0.00,,,0.00,weatherlink.com 1.10,2013-02-24 21:57:00,
2013-02-24 17:12:00,43.5,26.0,29.96,NE,55,1.0,5.0,51,0.00,,,0.00,weatherlink.com 1.10,2013-02-24 22:12:00,
2013-02-24 17:27:00,42.0,26.0,29.97,ENE,67,5.0,7.0,54,0.00,,,0.00,weatherlink.com 1.10,2013-02-24 22:27:00,
2013-02-24 17:42:00,40.1,26.0,29.98,NE,53,3.0,6.0,57,0.00,,,0.00,weatherlink.com 1.10,2013-02-24 22:42:00,
2013-02-24 17:57:00,38.7,24.0,30.00,NNE,20,2.0,5.0,57,0.00,,,0.00,weatherlink.com 1.10,2013-02-24 22:57:00,
2013-02-24 18:12:00,38.0,24.0,30.01,West,273,3.0,10.0,58,0.00,,,0.00,weatherlink.com 1.10,2013-02-24 23:12:00,
2013-02-24 18:27:00,37.0,24.0,30.02,ENE,75,2.0,5.0,60,0.00,,,0.00,weatherlink.com 1.10,2013-02-24 23:27:00,
2013-02-24 18:42:00,36.6,24.0,30.03,NE,50,0.0,6.0,60,0.00,,,0.00,weatherlink.com 1.10,2013-02-24 23:42:00,
2013-02-24 18:57:00,36.0,24.0,30.04,NNE,32,2.0,5.0,61,0.00,,,0.00,weatherlink.com 1.10,2013-02-24 23:57:00,
2013-02-24 19:12:00,35.5,24.0,30.06,North,349,2.0,5.0,62,0.00,,,0.00,weatherlink.com 1.10,2013-02-25 00:12:00,
2013-02-24 19:27:00,35.4,23.0,30.06,NNE,32,4.0,7.0,62,0.00,,,0.00,weatherlink.com 1.10,2013-02-25 00:27:00,
2013-02-24 19:42:00,35.3,23.0,30.07,North,353,2.0,9.0,62,0.00,,,0.00,weatherlink.com 1.10,2013-02-25 00:42:00,
2013-02-24 19:57:00,35.2,23.0,30.08,NW,309,1.0,7.0,61,0.00,,,0.00,weatherlink.com 1.10,2013-02-25 00:57:00,
2013-02-24 20:13:00,34.7,23.0,30.10,NNE,25,1.0,8.0,62,0.00,,,0.00,weatherlink.com 1.10,2013-02-25 01:13:00,
2013-02-24 20:28:00,34.9,23.0,30.09,WNW,288,3.0,9.0,63,0.00,,,0.00,weatherlink.com 1.10,2013-02-25 01:28:00,
2013-02-24 20:43:00,34.5,23.0,30.09,North,1,3.0,7.0,64,0.00,,,0.00,weatherlink.com 1.10,2013-02-25 01:43:00,
2013-02-24 20:58:00,34.5,23.0,30.11,North,6,3.0,6.0,62,0.00,,,0.00,weatherlink.com 1.10,2013-02-25 01:58:00,
2013-02-24 21:13:00,34.1,22.0,30.11,NNW,328,4.0,4.0,61,0.00,,,0.00,weatherlink.com 1.10,2013-02-25 02:13:00,
2013-02-24 21:28:00,33.6,21.0,30.11,NNE,29,4.0,5.0,61,0.00,,,0.00,weatherlink.com 1.10,2013-02-25 02:28:00,
2013-02-24 21:43:00,33.9,20.0,30.13,NE,34,3.0,9.0,58,0.00,,,0.00,weatherlink.com 1.10,2013-02-25 02:43:00,
2013-02-24 21:58:00,33.4,20.0,30.12,WNW,287,0.0,3.0,59,0.00,,,0.00,weatherlink.com 1.10,2013-02-25 02:58:00,
2013-02-24 22:13:00,33.3,19.0,30.14,West,262,2.0,3.0,57,0.00,,,0.00,weatherlink.com 1.10,2013-02-25 03:13:00,
2013-02-24 22:28:00,32.9,20.0,30.13,NNW,331,2.0,3.0,59,0.00,,,0.00,weatherlink.com 1.10,2013-02-25 03:28:00,
2013-02-24 22:43:00,32.4,19.0,30.12,NNW,331,1.0,4.0,59,0.00,,,0.00,weatherlink.com 1.10,2013-02-25 03:43:00,
2013-02-24 22:58:00,32.5,19.0,30.13,WNW,298,1.0,2.0,58,0.00,,,0.00,weatherlink.com 1.10,2013-02-25 03:58:00,
2013-02-24 23:13:00,31.8,20.0,30.13,SSE,160,0.0,2.0,61,0.00,,,0.00,weatherlink.com 1.10,2013-02-25 04:13:00,
2013-02-24 23:28:00,31.7,20.0,30.13,NW,320,0.0,3.0,62,0.00,,,0.00,weatherlink.com 1.10,2013-02-25 04:28:00,
2013-02-24 23:43:00,31.7,19.0,30.14,West,262,1.0,2.0,60,0.00,,,0.00,weatherlink.com 1.10,2013-02-25 04:43:00,
2013-02-24 23:58:00,31.6,19.0,30.13,WNW,296,0.0,2.0,60,0.00,,,0.00,weatherlink.com 1.10,2013-02-25 04:58:00,